createdAt,value
2017-08-02T00:00:51.335Z,52.58
2017-08-02T00:02:01.561Z,52.78
2017-08-02T00:03:11.481Z,52.58
2017-08-02T00:04:21.460Z,52.58
2017-08-02T00:05:31.388Z,52.68
2017-08-02T00:06:41.019Z,52.78
2017-08-02T00:07:51.320Z,52.68
2017-08-02T00:09:01.552Z,53.07
2017-08-02T00:10:11.797Z,52.68
2017-08-02T00:11:22.081Z,53.07
2017-08-02T00:12:31.697Z,52.68
2017-08-02T00:13:41.615Z,52.75
2017-08-02T00:14:51.555Z,52.78
2017-08-02T00:16:01.481Z,53.07
2017-08-02T00:17:11.393Z,52.68
2017-08-02T00:18:21.313Z,52.78
2017-08-02T00:19:31.435Z,52.87
2017-08-02T00:20:41.050Z,53.17
2017-08-02T00:21:51.274Z,52.85
2017-08-02T00:23:01.216Z,52.87
2017-08-02T00:24:10.849Z,52.97
2017-08-02T00:25:21.189Z,52.78
2017-08-02T00:26:31.116Z,52.85
2017-08-02T00:27:41.074Z,52.85
2017-08-02T00:28:50.409Z,52.85
2017-08-02T00:30:00.346Z,52.85
2017-08-02T00:31:10.328Z,53.04
2017-08-02T00:32:20.582Z,52.75
2017-08-02T00:33:30.507Z,52.87
2017-08-02T00:34:40.767Z,52.87
2017-08-02T00:35:51.038Z,52.95
2017-08-02T00:37:01.267Z,52.87
2017-08-02T00:38:11.505Z,52.85
2017-08-02T00:39:21.131Z,52.66
2017-08-02T00:40:31.372Z,52.66
2017-08-02T00:41:40.716Z,52.68
2017-08-02T00:42:50.800Z,52.75
2017-08-02T00:44:00.425Z,52.75
2017-08-02T00:45:10.684Z,52.75
2017-08-02T00:46:20.008Z,52.95
2017-08-02T00:47:30.267Z,52.75
2017-08-02T00:48:40.608Z,52.85
2017-08-02T00:49:50.884Z,52.66
2017-08-02T00:51:00.505Z,52.85
2017-08-02T00:52:10.422Z,52.66
2017-08-02T00:53:20.366Z,52.66
2017-08-02T00:54:30.069Z,52.75
2017-08-02T00:55:40.297Z,52.75
2017-08-02T00:56:50.550Z,53.14
2017-08-02T00:58:00.172Z,53.04
2017-08-02T00:59:09.810Z,52.75
2017-08-02T01:00:19.424Z,52.85
2017-08-02T01:01:29.333Z,53.53
2017-08-02T01:02:38.647Z,53.33
2017-08-02T01:03:48.591Z,53.43
2017-08-02T01:04:58.510Z,53.23
2017-08-02T01:06:08.270Z,53.33
2017-08-02T01:07:17.888Z,53.33
2017-08-02T01:08:28.122Z,53.23
2017-08-02T01:09:37.732Z,53.23
2017-08-02T01:10:47.375Z,53.33
2017-08-02T01:11:58.018Z,53.43
2017-08-02T01:13:07.650Z,53.33
2017-08-02T01:14:17.896Z,53.23
2017-08-02T01:15:27.516Z,53.04
2017-08-02T01:16:37.439Z,53.23
2017-08-02T01:17:47.459Z,53.33
2017-08-02T01:18:57.070Z,53.14
2017-08-02T01:20:06.998Z,53.33
2017-08-02T01:21:16.907Z,53.33
2017-08-02T01:22:26.828Z,53.33
2017-08-02T01:23:36.442Z,53.14
2017-08-02T01:24:46.076Z,53.23
2017-08-02T01:25:56.049Z,53.04
2017-08-02T01:27:05.718Z,53.14
2017-08-02T01:28:15.629Z,53.14
2017-08-02T01:29:25.101Z,53.14
2017-08-02T01:30:35.333Z,53.53
2017-08-02T01:31:45.563Z,52.95
2017-08-02T01:32:55.488Z,53.23
2017-08-02T01:34:05.155Z,53.33
2017-08-02T01:35:14.789Z,52.95
2017-08-02T01:36:25.029Z,53.33
2017-08-02T01:37:34.937Z,52.85
2017-08-02T01:38:45.196Z,53.14
2017-08-02T01:39:54.832Z,53.23
2017-08-02T01:41:04.295Z,53.43
2017-08-02T01:42:14.527Z,53.43
2017-08-02T01:43:24.465Z,53.33
2017-08-02T01:44:34.379Z,53.23
2017-08-02T01:45:44.308Z,53.43
2017-08-02T01:46:54.229Z,53.33
2017-08-02T01:48:03.888Z,53.33
2017-08-02T01:49:14.123Z,53.43
2017-08-02T01:50:24.353Z,52.95
2017-08-02T01:51:34.282Z,52.95
2017-08-02T01:52:44.307Z,53.33
2017-08-02T01:53:54.534Z,53.23
2017-08-02T01:55:04.769Z,53.43
2017-08-02T01:56:14.687Z,53.33
2017-08-02T01:57:24.313Z,53.33
2017-08-02T01:58:34.240Z,53.43
2017-08-02T01:59:44.179Z,53.43
2017-08-02T02:00:53.790Z,52.95
2017-08-02T02:02:04.035Z,53.33
2017-08-02T02:03:14.275Z,52.95
2017-08-02T02:04:24.549Z,53.33
2017-08-02T02:05:34.517Z,53.33
2017-08-02T02:06:44.168Z,53.23
2017-08-02T02:07:53.791Z,53.23
2017-08-02T02:09:03.710Z,53.33
2017-08-02T02:10:13.749Z,53.43
2017-08-02T02:11:23.677Z,53.23
2017-08-02T02:12:32.976Z,53.04
2017-08-02T02:13:42.579Z,53.14
2017-08-02T02:14:52.199Z,53.23
2017-08-02T02:16:02.281Z,53.23
2017-08-02T02:17:12.202Z,53.04
2017-08-02T02:18:21.830Z,53.02
2017-08-02T02:19:31.742Z,53.33
2017-08-02T02:20:41.661Z,53.63
2017-08-02T02:21:50.667Z,53.41
2017-08-02T02:23:00.283Z,53.5
2017-08-02T02:24:10.214Z,53.79
2017-08-02T02:25:20.447Z,53.69
2017-08-02T02:26:30.367Z,53.31
2017-08-02T02:27:40.272Z,53.59
2017-08-02T02:28:50.188Z,53.5
2017-08-02T02:30:00.415Z,53.69
2017-08-02T02:31:10.347Z,54.27
2017-08-02T02:32:20.269Z,54.17
2017-08-02T02:33:30.642Z,53.99
2017-08-02T02:34:39.945Z,54.57
2017-08-02T02:35:49.878Z,54.47
2017-08-02T02:36:59.793Z,54.25
2017-08-02T02:38:09.786Z,54.25
2017-08-02T02:39:19.562Z,54.44
2017-08-02T02:40:29.487Z,54.35
2017-08-02T02:41:39.418Z,54.63
2017-08-02T02:42:49.340Z,54.25
2017-08-02T02:43:59.564Z,54.73
2017-08-02T02:45:09.936Z,54.63
2017-08-02T02:46:20.168Z,54.73
2017-08-02T02:47:30.100Z,54.44
2017-08-02T02:48:40.028Z,54.73
2017-08-02T02:49:49.978Z,55.09
2017-08-02T02:51:00.080Z,54.8
2017-08-02T02:52:09.703Z,54.99
2017-08-02T02:53:19.626Z,54.8
2017-08-02T02:54:29.240Z,54.71
2017-08-02T02:55:38.858Z,54.8
2017-08-02T02:56:49.232Z,54.71
2017-08-02T02:57:58.839Z,54.71
2017-08-02T02:59:08.470Z,54.71
2017-08-02T03:00:18.384Z,54.8
2017-08-02T03:01:27.997Z,54.9
2017-08-02T03:02:38.070Z,54.9
2017-08-02T03:03:47.392Z,54.9
2017-08-02T03:04:57.625Z,54.9
2017-08-02T03:06:07.269Z,54.8
2017-08-02T03:07:17.220Z,54.8
2017-08-02T03:08:27.138Z,54.8
2017-08-02T03:09:36.447Z,54.8
2017-08-02T03:10:46.363Z,54.8
2017-08-02T03:11:56.298Z,54.8
2017-08-02T03:13:06.217Z,55.09
2017-08-02T03:14:16.594Z,55.29
2017-08-02T03:15:26.509Z,54.99
2017-08-02T03:16:36.729Z,55.07
2017-08-02T03:17:46.651Z,55.29
2017-08-02T03:18:56.568Z,55.45
2017-08-02T03:20:06.802Z,55.45
2017-08-02T03:21:16.727Z,55.45
2017-08-02T03:22:26.683Z,55.55
2017-08-02T03:23:36.301Z,55.16
2017-08-02T03:24:45.932Z,55.45
2017-08-02T03:25:55.698Z,55.35
2017-08-02T03:27:05.306Z,55.74
2017-08-02T03:28:15.234Z,55.93
2017-08-02T03:29:25.473Z,55.74
2017-08-02T03:30:35.079Z,55.83
2017-08-02T03:31:45.164Z,55.93
2017-08-02T03:32:55.396Z,55.93
2017-08-02T03:34:04.712Z,55.93
2017-08-02T03:35:14.674Z,56.03
2017-08-02T03:36:24.597Z,55.93
2017-08-02T03:37:34.667Z,55.93
2017-08-02T03:38:44.590Z,55.93
2017-08-02T03:39:53.907Z,55.55
2017-08-02T03:41:04.142Z,55.93
2017-08-02T03:42:14.077Z,55.93
2017-08-02T03:43:24.835Z,55.83
2017-08-02T03:44:34.786Z,55.83
2017-08-02T03:45:44.719Z,55.83
2017-08-02T03:46:54.336Z,55.83
2017-08-02T03:48:04.562Z,56.03
2017-08-02T03:49:14.855Z,55.74
2017-08-02T03:50:25.100Z,56.03
2017-08-02T03:51:35.028Z,55.45
2017-08-02T03:52:44.657Z,55.26
2017-08-02T03:53:54.282Z,55.16
2017-08-02T03:55:04.049Z,55.65
2017-08-02T03:56:14.283Z,55.45
2017-08-02T03:57:23.289Z,54.87
2017-08-02T03:58:33.211Z,55.16
2017-08-02T03:59:43.129Z,55.07
2017-08-02T04:00:52.845Z,54.8
2017-08-02T04:02:03.064Z,54.8
2017-08-02T04:03:12.991Z,54.99
2017-08-02T04:04:22.908Z,55.19
2017-08-02T04:05:32.524Z,54.9
2017-08-02T04:06:42.900Z,54.71
2017-08-02T04:07:53.137Z,54.41
2017-08-02T04:09:03.045Z,54.51
2017-08-02T04:10:12.966Z,54.51
2017-08-02T04:11:22.588Z,54.51
2017-08-02T04:12:32.968Z,54.51
2017-08-02T04:13:43.590Z,54.41
2017-08-02T04:14:53.505Z,54.61
2017-08-02T04:16:02.810Z,54.61
2017-08-02T04:17:12.415Z,54.61
2017-08-02T04:18:22.365Z,54.41
2017-08-02T04:19:31.983Z,54.41
2017-08-02T04:20:41.924Z,54.71
2017-08-02T04:21:52.150Z,54.8
2017-08-02T04:23:02.081Z,54.61
2017-08-02T04:24:12.643Z,54.51
2017-08-02T04:25:22.251Z,54.41
2017-08-02T04:26:31.854Z,54.71
2017-08-02T04:27:41.156Z,54.51
2017-08-02T04:28:51.108Z,54.15
2017-08-02T04:30:01.178Z,54.15
2017-08-02T04:31:11.096Z,54.53
2017-08-02T04:32:21.025Z,54.53
2017-08-02T04:33:30.943Z,54.32
2017-08-02T04:34:40.868Z,54.53
2017-08-02T04:35:51.388Z,54.25
2017-08-02T04:37:01.321Z,54.53
2017-08-02T04:38:11.548Z,54.53
2017-08-02T04:39:21.466Z,54.53
2017-08-02T04:40:31.389Z,54.93
2017-08-02T04:41:40.999Z,54.53
2017-08-02T04:42:50.936Z,54.73
2017-08-02T04:44:00.878Z,54.35
2017-08-02T04:45:10.795Z,54.25
2017-08-02T04:46:21.030Z,54.53
2017-08-02T04:47:31.103Z,54.05
2017-08-02T04:48:41.355Z,54.63
2017-08-02T04:49:51.590Z,54.53
2017-08-02T04:51:01.815Z,54.53
2017-08-02T04:52:11.424Z,54.63
2017-08-02T04:53:21.459Z,54.73
2017-08-02T04:54:31.072Z,54.63
2017-08-02T04:55:41.296Z,54.15
2017-08-02T04:56:51.513Z,54.25
2017-08-02T04:58:01.143Z,54.25
2017-08-02T04:59:11.113Z,54.35
2017-08-02T05:00:21.345Z,54.08
2017-08-02T05:01:31.574Z,54.17
2017-08-02T05:02:41.488Z,54.17
2017-08-02T05:03:51.725Z,54.27
2017-08-02T05:05:01.497Z,53.69
2017-08-02T05:06:11.409Z,53.79
2017-08-02T05:07:21.323Z,53.41
2017-08-02T05:08:30.938Z,53.69
2017-08-02T05:09:41.155Z,53.31
2017-08-02T05:10:51.070Z,53.41
2017-08-02T05:12:01.304Z,53.41
2017-08-02T05:13:11.533Z,53.41
2017-08-02T05:14:21.457Z,53.63
2017-08-02T05:15:31.364Z,53.23
2017-08-02T05:16:41.734Z,53.14
2017-08-02T05:17:51.652Z,53.33
2017-08-02T05:19:01.576Z,53.33
2017-08-02T05:20:11.512Z,52.85
2017-08-02T05:21:21.735Z,53.23
2017-08-02T05:22:31.654Z,52.85
2017-08-02T05:23:41.883Z,52.75
2017-08-02T05:24:51.806Z,52.85
2017-08-02T05:26:02.028Z,52.68
2017-08-02T05:27:11.633Z,52.49
2017-08-02T05:28:21.858Z,52.87
2017-08-02T05:29:32.084Z,52.2
2017-08-02T05:30:42.309Z,51.81
2017-08-02T05:31:52.259Z,51.62
2017-08-02T05:33:02.183Z,52.1
2017-08-02T05:34:11.793Z,52.1
2017-08-02T05:35:21.399Z,51.9
2017-08-02T05:36:31.309Z,52.12
2017-08-02T05:37:40.911Z,52.03
2017-08-02T05:38:50.849Z,52.12
2017-08-02T05:40:00.874Z,51.93
2017-08-02T05:41:10.496Z,51.93
2017-08-02T05:42:20.751Z,52.03
2017-08-02T05:43:30.696Z,52.03
2017-08-02T05:44:40.922Z,51.84
2017-08-02T05:45:50.904Z,51.93
2017-08-02T05:47:00.830Z,52.03
2017-08-02T05:48:10.750Z,52.03
2017-08-02T05:49:20.984Z,51.84
2017-08-02T05:50:30.912Z,52.12
2017-08-02T05:51:41.289Z,51.93
2017-08-02T05:52:51.212Z,52.22
2017-08-02T05:54:01.129Z,52.32
2017-08-02T05:55:10.457Z,52.61
2017-08-02T05:56:20.391Z,52.97
2017-08-02T05:57:30.349Z,53.36
2017-08-02T05:58:40.276Z,53.26
2017-08-02T05:59:49.955Z,53.26
2017-08-02T06:01:00.201Z,53.85
2017-08-02T06:02:10.457Z,53.65
2017-08-02T06:03:20.704Z,54.01
2017-08-02T06:04:30.634Z,53.91
2017-08-02T06:05:40.882Z,54.39
2017-08-02T06:06:50.501Z,54.59
2017-08-02T06:08:00.450Z,54.66
2017-08-02T06:09:09.987Z,54.85
2017-08-02T06:10:19.952Z,54.85
2017-08-02T06:11:29.289Z,55.05
2017-08-02T06:12:39.314Z,55.05
2017-08-02T06:13:48.998Z,54.66
2017-08-02T06:14:58.621Z,54.66
2017-08-02T06:16:07.937Z,54.66
2017-08-02T06:17:18.182Z,54.66
2017-08-02T06:18:27.850Z,55.05
2017-08-02T06:19:37.858Z,55.15
2017-08-02T06:20:48.299Z,55.53
2017-08-02T06:21:58.201Z,55.53
2017-08-02T06:23:08.169Z,55.51
2017-08-02T06:24:17.830Z,55.51
2017-08-02T06:25:27.775Z,55.05
2017-08-02T06:26:37.801Z,55.05
2017-08-02T06:27:47.736Z,54.66
2017-08-02T06:28:58.048Z,54.17
2017-08-02T06:30:07.686Z,54.3
2017-08-02T06:31:18.019Z,54.49
2017-08-02T06:32:28.046Z,54.01
2017-08-02T06:33:38.288Z,54.3
2017-08-02T06:34:48.520Z,53.91
2017-08-02T06:35:58.138Z,53.65
2017-08-02T06:37:08.114Z,53.17
2017-08-02T06:38:18.099Z,53.55
2017-08-02T06:39:27.738Z,53.07
2017-08-02T06:40:37.706Z,53.45
2017-08-02T06:41:47.343Z,53.55
2017-08-02T06:42:56.963Z,52.97
2017-08-02T06:44:06.785Z,52.87
2017-08-02T06:45:16.433Z,52.9
2017-08-02T06:46:26.731Z,52.51
2017-08-02T06:47:36.340Z,52.8
2017-08-02T06:48:46.248Z,53.29
2017-08-02T06:49:56.244Z,52.71
2017-08-02T06:51:06.208Z,52.51
2017-08-02T06:52:16.168Z,52.61
2017-08-02T06:53:25.837Z,52.51
2017-08-02T06:54:35.823Z,52.9
2017-08-02T06:55:46.041Z,52.93
2017-08-02T06:56:55.968Z,52.34
2017-08-02T06:58:05.603Z,52.54
2017-08-02T06:59:15.537Z,52.34
2017-08-02T07:00:25.477Z,52.25
2017-08-02T07:01:35.086Z,52.34
2017-08-02T07:02:45.006Z,52.34
2017-08-02T07:03:54.623Z,52.06
2017-08-02T07:05:04.308Z,52.25
2017-08-02T07:06:14.542Z,52.15
2017-08-02T07:07:24.515Z,51.76
2017-08-02T07:08:34.434Z,51.76
2017-08-02T07:09:43.765Z,52.34
2017-08-02T07:10:53.390Z,51.98
2017-08-02T07:12:03.351Z,51.98
2017-08-02T07:13:13.441Z,52.08
2017-08-02T07:14:23.376Z,51.5
2017-08-02T07:15:33.030Z,51.59
2017-08-02T07:16:42.971Z,51.4
2017-08-02T07:17:53.196Z,50.72
2017-08-02T07:19:03.486Z,49.8
2017-08-02T07:20:13.405Z,49.44
2017-08-02T07:21:23.032Z,49.24
2017-08-02T07:22:32.965Z,48.78
2017-08-02T07:23:42.592Z,48.1
2017-08-02T07:24:52.878Z,48.13
2017-08-02T07:26:02.502Z,47.93
2017-08-02T07:27:12.121Z,47.93
2017-08-02T07:28:22.060Z,48.61
2017-08-02T07:29:31.994Z,48.68
2017-08-02T07:30:41.931Z,48.88
2017-08-02T07:31:51.609Z,48.78
2017-08-02T07:33:01.600Z,49.27
2017-08-02T07:34:11.927Z,50.02
2017-08-02T07:35:21.963Z,49.92
2017-08-02T07:36:32.354Z,50.12
2017-08-02T07:37:42.304Z,50.31
2017-08-02T07:38:52.564Z,50.41
2017-08-02T07:40:02.805Z,50.31
2017-08-02T07:41:12.440Z,50.51
2017-08-02T07:42:22.508Z,50.12
2017-08-02T07:43:32.469Z,50.12
2017-08-02T07:44:42.103Z,50.6
2017-08-02T07:45:52.328Z,50.21
2017-08-02T07:47:01.990Z,50.21
2017-08-02T07:48:12.335Z,50.51
2017-08-02T07:49:22.300Z,50.41
2017-08-02T07:50:32.040Z,50.31
2017-08-02T07:51:41.095Z,50.21
2017-08-02T07:52:50.772Z,50.7
2017-08-02T07:54:01.034Z,50.6
2017-08-02T07:55:10.373Z,50.8
2017-08-02T07:56:20.682Z,50.8
2017-08-02T07:57:30.655Z,50.6
2017-08-02T07:58:40.903Z,50.7
2017-08-02T07:59:50.828Z,51.16
2017-08-02T08:01:00.866Z,50.6
2017-08-02T08:02:11.018Z,51.09
2017-08-02T08:03:20.406Z,50.96
2017-08-02T08:04:30.701Z,51.09
2017-08-02T08:05:40.450Z,51.16
2017-08-02T08:06:50.442Z,51.26
2017-08-02T08:08:00.736Z,51.06
2017-08-02T08:09:10.681Z,51.45
2017-08-02T08:10:20.778Z,51.55
2017-08-02T08:11:30.905Z,51.65
2017-08-02T08:12:41.212Z,51.55
2017-08-02T08:13:51.130Z,51.26
2017-08-02T08:15:00.808Z,51.35
2017-08-02T08:16:10.371Z,51.55
2017-08-02T08:17:21.972Z,51.35
2017-08-02T08:18:32.933Z,50.96
2017-08-02T08:19:43.223Z,50.99
2017-08-02T08:20:53.430Z,51.09
2017-08-02T08:22:03.812Z,51.09
2017-08-02T08:23:13.775Z,50.87
2017-08-02T08:24:24.205Z,50.99
2017-08-02T08:25:33.916Z,51.06
2017-08-02T08:26:43.895Z,51.06
2017-08-02T08:27:53.863Z,50.99
2017-08-02T08:29:03.681Z,51.18
2017-08-02T08:30:13.921Z,51.48
2017-08-02T08:31:24.246Z,50.89
2017-08-02T08:32:33.627Z,51.09
2017-08-02T08:33:43.383Z,50.99
2017-08-02T08:34:53.700Z,50.8
2017-08-02T08:36:03.929Z,50.6
2017-08-02T08:37:14.163Z,50.51
2017-08-02T08:38:24.417Z,51.09
2017-08-02T08:39:34.350Z,51.18
2017-08-02T08:40:44.432Z,51.16
2017-08-02T08:41:54.363Z,51.09
2017-08-02T08:43:03.662Z,51.09
2017-08-02T08:44:12.980Z,50.99
2017-08-02T08:45:22.499Z,51.06
2017-08-02T08:46:33.033Z,50.99
2017-08-02T08:47:43.009Z,50.99
2017-08-02T08:48:53.363Z,50.87
2017-08-02T08:50:03.646Z,51.28
2017-08-02T08:51:13.668Z,51.09
2017-08-02T08:52:23.994Z,51.38
2017-08-02T08:53:33.934Z,51.57
2017-08-02T08:54:44.201Z,51.48
2017-08-02T08:55:53.813Z,51.48
2017-08-02T08:57:03.813Z,51.45
2017-08-02T08:58:13.947Z,51.38
2017-08-02T08:59:23.915Z,51.26
2017-08-02T09:00:33.253Z,51.18
2017-08-02T09:01:42.937Z,51.55
2017-08-02T09:02:53.235Z,51.45
2017-08-02T09:04:02.409Z,51.75
2017-08-02T09:05:11.764Z,51.26
2017-08-02T09:06:21.848Z,51.65
2017-08-02T09:07:31.821Z,51.65
2017-08-02T09:08:41.759Z,51.84
2017-08-02T09:09:51.672Z,51.55
2017-08-02T09:11:01.926Z,52.13
2017-08-02T09:12:11.906Z,52.03
2017-08-02T09:13:22.150Z,52.03
2017-08-02T09:14:31.494Z,52.03
2017-08-02T09:15:41.281Z,52.42
2017-08-02T09:16:50.920Z,52.03
2017-08-02T09:18:00.570Z,52.03
2017-08-02T09:19:10.518Z,51.75
2017-08-02T09:20:20.479Z,51.75
2017-08-02T09:21:30.560Z,51.93
2017-08-02T09:22:40.528Z,52.23
2017-08-02T09:23:50.807Z,52.23
2017-08-02T09:25:01.056Z,52.03
2017-08-02T09:26:10.996Z,51.93
2017-08-02T09:27:21.270Z,51.91
2017-08-02T09:28:31.124Z,52.2
2017-08-02T09:29:41.066Z,52.42
2017-08-02T09:30:50.428Z,52.4
2017-08-02T09:32:00.359Z,52.3
2017-08-02T09:33:10.027Z,52.4
2017-08-02T09:34:19.968Z,52.59
2017-08-02T09:35:29.289Z,52.88
2017-08-02T09:36:38.915Z,52.42
2017-08-02T09:37:48.845Z,52.5
2017-08-02T09:38:59.234Z,52.52
2017-08-02T09:40:09.162Z,52.3
2017-08-02T09:41:18.801Z,52.2
2017-08-02T09:42:29.033Z,52.4
2017-08-02T09:43:38.654Z,53
2017-08-02T09:44:49.231Z,52.4
2017-08-02T09:45:59.171Z,52.88
2017-08-02T09:47:09.104Z,52.4
2017-08-02T09:48:18.750Z,52.4
2017-08-02T09:49:29.033Z,52.59
2017-08-02T09:50:38.965Z,52.4
2017-08-02T09:51:48.907Z,52.3
2017-08-02T09:52:58.833Z,52.2
2017-08-02T09:54:08.758Z,52.91
2017-08-02T09:55:18.691Z,52.2
2017-08-02T09:56:28.400Z,52.3
2017-08-02T09:57:38.647Z,52.33
2017-08-02T09:58:48.877Z,52.3
2017-08-02T09:59:59.228Z,52.33
2017-08-02T10:01:09.154Z,52.2
2017-08-02T10:02:18.606Z,52.11
2017-08-02T10:03:28.247Z,51.93
2017-08-02T10:04:38.200Z,51.93
2017-08-02T10:05:48.175Z,52.03
2017-08-02T10:06:58.443Z,52.03
2017-08-02T10:08:08.552Z,51.93
2017-08-02T10:09:18.507Z,52.23
2017-08-02T10:10:27.881Z,52.13
2017-08-02T10:11:37.540Z,52.23
2017-08-02T10:12:47.235Z,52.33
2017-08-02T10:13:56.576Z,52.23
2017-08-02T10:15:06.217Z,51.93
2017-08-02T10:16:16.168Z,52.33
2017-08-02T10:17:25.501Z,51.84
2017-08-02T10:18:35.179Z,51.84
2017-08-02T10:19:44.958Z,51.84
2017-08-02T10:20:54.288Z,51.84
2017-08-02T10:22:04.210Z,51.75
2017-08-02T10:23:14.136Z,52.03
2017-08-02T10:24:23.468Z,52.13
2017-08-02T10:25:33.132Z,52.03
2017-08-02T10:26:42.597Z,52.23
2017-08-02T10:27:52.838Z,52.13
2017-08-02T10:29:02.337Z,52.33
2017-08-02T10:30:11.968Z,52.33
2017-08-02T10:31:22.078Z,52.23
2017-08-02T10:32:32.056Z,52.23
2017-08-02T10:33:42.038Z,52.23
2017-08-02T10:34:51.676Z,52.13
2017-08-02T10:36:01.304Z,52.23
2017-08-02T10:37:11.422Z,52.33
2017-08-02T10:38:21.370Z,52.23
2017-08-02T10:39:31.308Z,52.23
2017-08-02T10:40:40.385Z,52.23
2017-08-02T10:41:49.742Z,51.84
2017-08-02T10:42:59.350Z,52.03
2017-08-02T10:44:08.967Z,51.84
2017-08-02T10:45:19.256Z,52.03
2017-08-02T10:46:29.193Z,52.03
2017-08-02T10:47:38.811Z,52.03
2017-08-02T10:48:48.841Z,52.13
2017-08-02T10:49:59.457Z,51.84
2017-08-02T10:51:09.084Z,51.84
2017-08-02T10:52:18.718Z,52.03
2017-08-02T10:53:28.643Z,52.23
2017-08-02T10:54:38.442Z,52.03
2017-08-02T10:55:48.407Z,52.23
2017-08-02T10:56:57.761Z,51.75
2017-08-02T10:58:07.485Z,52.13
2017-08-02T10:59:17.166Z,51.93
2017-08-02T11:00:27.397Z,52.23
2017-08-02T11:01:37.680Z,52.33
2017-08-02T11:02:47.421Z,52.03
2017-08-02T11:03:58.087Z,52.03
2017-08-02T11:05:08.029Z,52.03
2017-08-02T11:06:18.440Z,52.03
2017-08-02T11:07:27.759Z,52.23
2017-08-02T11:08:37.697Z,52.23
2017-08-02T11:09:47.320Z,52.33
2017-08-02T11:10:57.240Z,51.93
2017-08-02T11:12:07.529Z,51.93
2017-08-02T11:13:17.774Z,52.23
2017-08-02T11:14:27.700Z,52.23
2017-08-02T11:15:37.614Z,52.23
2017-08-02T11:16:47.538Z,51.93
2017-08-02T11:17:57.297Z,51.93
2017-08-02T11:19:07.234Z,51.93
2017-08-02T11:20:17.154Z,52.23
2017-08-02T11:21:27.096Z,51.84
2017-08-02T11:22:37.015Z,52.23
2017-08-02T11:23:47.001Z,52.23
2017-08-02T11:24:56.620Z,51.93
2017-08-02T11:26:06.249Z,52.23
2017-08-02T11:27:16.497Z,52.03
2017-08-02T11:28:26.747Z,52.03
2017-08-02T11:29:37.131Z,52.03
2017-08-02T11:30:46.764Z,51.84
2017-08-02T11:31:56.735Z,51.93
2017-08-02T11:33:06.658Z,52.03
2017-08-02T11:34:16.882Z,51.93
2017-08-02T11:35:26.249Z,52.33
2017-08-02T11:36:36.483Z,52.23
2017-08-02T11:37:46.413Z,52.13
2017-08-02T11:38:55.764Z,51.93
2017-08-02T11:40:05.403Z,51.93
2017-08-02T11:41:15.646Z,52.13
2017-08-02T11:42:25.628Z,51.93
2017-08-02T11:43:35.599Z,52.13
2017-08-02T11:44:45.840Z,51.84
2017-08-02T11:45:55.472Z,52.13
2017-08-02T11:47:06.040Z,52.13
2017-08-02T11:48:16.262Z,51.84
2017-08-02T11:49:25.968Z,51.84
2017-08-02T11:50:35.954Z,52.03
2017-08-02T11:51:46.185Z,51.93
2017-08-02T11:52:56.173Z,52.13
2017-08-02T11:54:05.804Z,52.23
2017-08-02T11:55:15.468Z,52.23
2017-08-02T11:56:25.748Z,52.13
2017-08-02T11:57:35.692Z,52.03
2017-08-02T11:58:45.523Z,51.93
2017-08-02T11:59:55.508Z,51.84
2017-08-02T12:01:05.775Z,52.33
2017-08-02T12:02:16.081Z,52.23
2017-08-02T12:03:26.007Z,52.23
2017-08-02T12:04:36.543Z,52.33
2017-08-02T12:05:46.535Z,52.23
2017-08-02T12:06:56.830Z,51.93
2017-08-02T12:08:06.757Z,52.03
2017-08-02T12:09:16.442Z,51.93
2017-08-02T12:10:26.843Z,52.23
2017-08-02T12:11:37.089Z,52.03
2017-08-02T12:12:47.016Z,52.03
2017-08-02T12:13:56.764Z,52.13
2017-08-02T12:15:07.013Z,52.13
2017-08-02T12:16:16.716Z,52.33
2017-08-02T12:17:26.704Z,52.13
2017-08-02T12:18:36.973Z,52.33
2017-08-02T12:19:46.597Z,51.93
2017-08-02T12:20:56.621Z,52.03
2017-08-02T12:22:07.164Z,52.03
2017-08-02T12:23:17.167Z,51.93
2017-08-02T12:24:27.168Z,51.93
2017-08-02T12:25:37.360Z,51.84
2017-08-02T12:26:47.588Z,51.84
2017-08-02T12:27:57.053Z,52.03
2017-08-02T12:29:06.691Z,52.03
2017-08-02T12:30:16.611Z,52.13
2017-08-02T12:31:27.015Z,52.03
2017-08-02T12:32:37.238Z,51.75
2017-08-02T12:33:47.398Z,52.13
2017-08-02T12:34:57.318Z,52.03
2017-08-02T12:36:07.551Z,51.93
2017-08-02T12:37:17.492Z,51.84
2017-08-02T12:38:27.535Z,51.75
2017-08-02T12:39:37.576Z,52.13
2017-08-02T12:40:47.817Z,52.23
2017-08-02T12:41:57.740Z,52.13
2017-08-02T12:43:07.694Z,52.23
2017-08-02T12:44:17.657Z,52.23
2017-08-02T12:45:26.978Z,52.23
2017-08-02T12:46:36.590Z,52.13
2017-08-02T12:47:46.621Z,52.13
2017-08-02T12:48:56.367Z,52.33
2017-08-02T12:50:05.997Z,52.42
2017-08-02T12:51:16.059Z,52.23
2017-08-02T12:52:25.678Z,52.13
2017-08-02T12:53:35.552Z,52.33
2017-08-02T12:54:45.816Z,52.13
2017-08-02T12:55:55.447Z,52.33
2017-08-02T12:57:05.701Z,52.23
2017-08-02T12:58:15.700Z,52.23
2017-08-02T12:59:25.180Z,52.42
2017-08-02T13:00:35.155Z,52.42
2017-08-02T13:01:45.108Z,52.23
2017-08-02T13:02:54.479Z,52.03
2017-08-02T13:04:04.720Z,52.23
2017-08-02T13:05:14.655Z,52.03
2017-08-02T13:06:24.875Z,52.03
2017-08-02T13:07:34.192Z,52.03
2017-08-02T13:08:44.422Z,52.23
2017-08-02T13:09:54.047Z,52.42
2017-08-02T13:11:03.662Z,52.23
2017-08-02T13:12:13.901Z,52.23
2017-08-02T13:13:23.822Z,52.03
2017-08-02T13:14:33.906Z,52.03
2017-08-02T13:15:44.121Z,52.13
2017-08-02T13:16:54.036Z,52.33
2017-08-02T13:18:04.265Z,52.23
2017-08-02T13:19:13.880Z,52.13
2017-08-02T13:20:23.974Z,51.84
2017-08-02T13:21:33.912Z,52.13
2017-08-02T13:22:44.152Z,52.03
2017-08-02T13:23:54.387Z,52.03
2017-08-02T13:25:04.550Z,52.13
2017-08-02T13:26:14.394Z,51.84
2017-08-02T13:27:24.364Z,51.84
2017-08-02T13:28:34.375Z,51.84
2017-08-02T13:29:44.124Z,51.93
2017-08-02T13:30:53.470Z,52.23
2017-08-02T13:32:03.506Z,51.93
2017-08-02T13:33:13.460Z,52.33
2017-08-02T13:34:23.962Z,52.23
2017-08-02T13:35:34.211Z,51.93
2017-08-02T13:36:44.136Z,52.03
2017-08-02T13:37:53.237Z,52.13
2017-08-02T13:39:03.190Z,51.93
2017-08-02T13:40:13.116Z,52.03
2017-08-02T13:41:23.039Z,52.23
2017-08-02T13:42:33.301Z,52.13
2017-08-02T13:43:43.903Z,52.03
2017-08-02T13:44:53.940Z,52.23
2017-08-02T13:46:03.903Z,51.93
2017-08-02T13:47:13.830Z,52.03
2017-08-02T13:48:23.469Z,52.23
2017-08-02T13:49:33.583Z,52.33
2017-08-02T13:50:43.823Z,51.93
2017-08-02T13:51:53.746Z,52.03
2017-08-02T13:53:03.691Z,51.93
2017-08-02T13:54:13.622Z,51.93
2017-08-02T13:55:23.859Z,51.93
2017-08-02T13:56:33.506Z,51.93
2017-08-02T13:57:43.112Z,51.93
2017-08-02T13:58:53.340Z,52.03
2017-08-02T14:00:03.630Z,52.23
2017-08-02T14:01:13.543Z,52.33
2017-08-02T14:02:23.471Z,52.23
2017-08-02T14:03:33.119Z,51.93
2017-08-02T14:04:42.731Z,51.93
2017-08-02T14:05:52.381Z,51.93
2017-08-02T14:07:01.833Z,51.93
2017-08-02T14:08:11.787Z,51.84
2017-08-02T14:09:21.708Z,51.93
2017-08-02T14:10:31.957Z,51.84
2017-08-02T14:11:42.189Z,51.93
2017-08-02T14:12:51.553Z,51.93
2017-08-02T14:14:01.492Z,51.84
2017-08-02T14:15:11.426Z,51.93
2017-08-02T14:16:21.048Z,51.93
2017-08-02T14:17:30.993Z,52.23
2017-08-02T14:18:40.779Z,52.33
2017-08-02T14:19:50.755Z,52.33
2017-08-02T14:21:00.367Z,52.03
2017-08-02T14:22:10.618Z,51.93
2017-08-02T14:23:20.541Z,52.13
2017-08-02T14:24:29.599Z,52.23
2017-08-02T14:25:39.845Z,52.23
2017-08-02T14:26:50.093Z,52.23
2017-08-02T14:28:00.321Z,52.23
2017-08-02T14:29:10.561Z,52.03
2017-08-02T14:30:20.520Z,52.42
2017-08-02T14:31:30.453Z,52.03
2017-08-02T14:32:40.671Z,52.13
2017-08-02T14:33:50.642Z,52.33
2017-08-02T14:35:00.309Z,52.33
2017-08-02T14:36:10.399Z,52.33
2017-08-02T14:37:20.633Z,52.42
2017-08-02T14:38:30.862Z,52.33
2017-08-02T14:39:41.087Z,52.33
2017-08-02T14:40:51.003Z,52.42
2017-08-02T14:42:00.941Z,52.42
2017-08-02T14:43:10.896Z,52.42
2017-08-02T14:44:20.817Z,52.3
2017-08-02T14:45:30.434Z,52.4
2017-08-02T14:46:40.660Z,52.3
2017-08-02T14:47:49.815Z,52.2
2017-08-02T14:48:59.792Z,52.52
2017-08-02T14:50:09.698Z,52.42
2017-08-02T14:51:19.311Z,52.33
2017-08-02T14:52:29.539Z,52.5
2017-08-02T14:53:39.874Z,52.3
2017-08-02T14:54:49.810Z,52.11
2017-08-02T14:55:59.432Z,52.3
2017-08-02T14:57:09.351Z,52.4
2017-08-02T14:58:18.685Z,52.5
2017-08-02T14:59:28.768Z,52.3
2017-08-02T15:00:38.072Z,52.88
2017-08-02T15:01:48.311Z,52.5
2017-08-02T15:02:58.229Z,52.5
2017-08-02T15:04:07.852Z,52.5